sensor_id;sensor_type;location;lat;lon;timestamp;pressure;altitude;pressure_sealevel;temperature;humidity
22572;BME280;11452;53.368;14.658;2023-08-08T00:00:19;100047.34;;;15.14;72.44
22572;BME280;11452;53.368;14.658;2023-08-08T00:05:25;100035.95;;;15.16;72.39
22572;BME280;11452;53.368;14.658;2023-08-08T00:10:31;100045.40;;;15.11;72.42
22572;BME280;11452;53.368;14.658;2023-08-08T00:15:36;100035.12;;;15.10;72.79
22572;BME280;11452;53.368;14.658;2023-08-08T00:20:42;100038.55;;;15.12;72.75
22572;BME280;11452;53.368;14.658;2023-08-08T00:25:48;100011.89;;;15.09;72.79
22572;BME280;11452;53.368;14.658;2023-08-08T00:30:54;100010.50;;;15.00;72.92
22572;BME280;11452;53.368;14.658;2023-08-08T00:36:00;100019.79;;;15.01;72.78
22572;BME280;11452;53.368;14.658;2023-08-08T00:41:06;100020.67;;;14.96;72.90
22572;BME280;11452;53.368;14.658;2023-08-08T00:46:12;100014.90;;;15.01;72.88
22572;BME280;11452;53.368;14.658;2023-08-08T00:51:18;100018.21;;;14.99;72.68
22572;BME280;11452;53.368;14.658;2023-08-08T00:56:25;100018.16;;;15.04;72.54
22572;BME280;11452;53.368;14.658;2023-08-08T01:01:31;100015.62;;;15.03;72.07
22572;BME280;11452;53.368;14.658;2023-08-08T01:12:11;100005.55;;;15.05;71.65
22572;BME280;11452;53.368;14.658;2023-08-08T01:17:17;100018.58;;;15.00;70.88
22572;BME280;11452;53.368;14.658;2023-08-08T01:22:29;100009.39;;;15.02;70.77
22572;BME280;11452;53.368;14.658;2023-08-08T01:27:36;100021.80;;;15.09;70.45
22572;BME280;11452;53.368;14.658;2023-08-08T01:32:41;99993.67;;;15.07;69.78
22572;BME280;11452;53.368;14.658;2023-08-08T01:37:56;100003.06;;;15.13;69.92
22572;BME280;11452;53.368;14.658;2023-08-08T01:43:02;100007.25;;;15.06;69.22
22572;BME280;11452;53.368;14.658;2023-08-08T01:48:09;99996.48;;;15.06;69.23
22572;BME280;11452;53.368;14.658;2023-08-08T01:53:15;100005.84;;;15.02;68.95
22572;BME280;11452;53.368;14.658;2023-08-08T01:58:21;99999.63;;;14.96;68.82
22572;BME280;11452;53.368;14.658;2023-08-08T02:03:27;100008.69;;;14.95;68.65
22572;BME280;11452;53.368;14.658;2023-08-08T02:08:33;100002.81;;;14.95;68.55
22572;BME280;11452;53.368;14.658;2023-08-08T02:13:39;99993.53;;;14.94;68.54
22572;BME280;11452;53.368;14.658;2023-08-08T02:18:45;100004.29;;;14.94;68.54
22572;BME280;11452;53.368;14.658;2023-08-08T02:23:51;100012.26;;;14.89;68.42
22572;BME280;11452;53.368;14.658;2023-08-08T02:28:56;100000.77;;;14.87;68.46
22572;BME280;11452;53.368;14.658;2023-08-08T02:34:02;99995.88;;;14.87;68.52
22572;BME280;11452;53.368;14.658;2023-08-08T02:39:08;99988.53;;;14.89;68.52
22572;BME280;11452;53.368;14.658;2023-08-08T02:44:14;100000.28;;;14.88;68.53
22572;BME280;11452;53.368;14.658;2023-08-08T02:49:19;100006.41;;;14.84;68.24
22572;BME280;11452;53.368;14.658;2023-08-08T02:54:25;99993.14;;;14.77;68.28
22572;BME280;11452;53.368;14.658;2023-08-08T02:59:32;99996.09;;;14.74;68.47
22572;BME280;11452;53.368;14.658;2023-08-08T03:04:39;99993.42;;;14.69;68.38
22572;BME280;11452;53.368;14.658;2023-08-08T03:09:45;99995.75;;;14.68;68.53
22572;BME280;11452;53.368;14.658;2023-08-08T03:14:51;100000.56;;;14.64;68.60
22572;BME280;11452;53.368;14.658;2023-08-08T03:19:57;100003.62;;;14.65;68.52
22572;BME280;11452;53.368;14.658;2023-08-08T03:25:04;100006.69;;;14.61;68.55
22572;BME280;11452;53.368;14.658;2023-08-08T03:30:11;100011.23;;;14.54;68.56
22572;BME280;11452;53.368;14.658;2023-08-08T03:35:18;100008.17;;;14.53;68.44
22572;BME280;11452;53.368;14.658;2023-08-08T03:40:24;100015.39;;;14.53;68.57
22572;BME280;11452;53.368;14.658;2023-08-08T03:45:30;100024.00;;;14.47;68.46
22572;BME280;11452;53.368;14.658;2023-08-08T03:50:35;100038.14;;;14.49;68.70
22572;BME280;11452;53.368;14.658;2023-08-08T03:55:41;100033.96;;;14.56;68.78
22572;BME280;11452;53.368;14.658;2023-08-08T04:00:48;100036.87;;;14.64;68.77
22572;BME280;11452;53.368;14.658;2023-08-08T04:05:54;100050.40;;;14.68;68.61
22572;BME280;11452;53.368;14.658;2023-08-08T04:11:00;100056.02;;;14.71;68.50
22572;BME280;11452;53.368;14.658;2023-08-08T04:16:06;100065.31;;;14.72;68.43
22572;BME280;11452;53.368;14.658;2023-08-08T04:21:11;100052.33;;;14.77;68.53
22572;BME280;11452;53.368;14.658;2023-08-08T04:26:17;100061.00;;;14.81;68.45
22572;BME280;11452;53.368;14.658;2023-08-08T04:31:23;100054.30;;;14.75;68.48
22572;BME280;11452;53.368;14.658;2023-08-08T04:36:30;100063.45;;;14.78;68.70
22572;BME280;11452;53.368;14.658;2023-08-08T04:41:37;100067.63;;;14.98;69.57
22572;BME280;11452;53.368;14.658;2023-08-08T04:46:42;100041.81;;;15.01;68.86
22572;BME280;11452;53.368;14.658;2023-08-08T04:51:48;100049.75;;;15.02;68.77
22572;BME280;11452;53.368;14.658;2023-08-08T04:56:54;100066.58;;;15.10;68.89
22572;BME280;11452;53.368;14.658;2023-08-08T05:02:00;100078.27;;;15.20;69.00
22572;BME280;11452;53.368;14.658;2023-08-08T05:07:06;100060.05;;;15.18;68.69
22572;BME280;11452;53.368;14.658;2023-08-08T05:12:12;100070.20;;;15.20;68.52
22572;BME280;11452;53.368;14.658;2023-08-08T05:17:18;100065.56;;;15.16;68.54
22572;BME280;11452;53.368;14.658;2023-08-08T05:22:23;100052.11;;;15.16;69.05
22572;BME280;11452;53.368;14.658;2023-08-08T05:27:29;100070.86;;;15.28;69.04
22572;BME280;11452;53.368;14.658;2023-08-08T05:32:35;100061.54;;;15.32;69.15
22572;BME280;11452;53.368;14.658;2023-08-08T05:37:41;100076.03;;;15.40;69.13
22572;BME280;11452;53.368;14.658;2023-08-08T05:42:48;100049.16;;;15.50;69.10
22572;BME280;11452;53.368;14.658;2023-08-08T05:47:54;100063.70;;;15.58;69.38
22572;BME280;11452;53.368;14.658;2023-08-08T05:53:01;100068.53;;;15.65;68.72
22572;BME280;11452;53.368;14.658;2023-08-08T05:58:07;100082.69;;;15.72;69.08
22572;BME280;11452;53.368;14.658;2023-08-08T06:03:12;100076.60;;;15.80;69.09
22572;BME280;11452;53.368;14.658;2023-08-08T06:08:18;100090.66;;;15.83;68.69
22572;BME280;11452;53.368;14.658;2023-08-08T06:13:24;100084.84;;;15.93;68.70
22572;BME280;11452;53.368;14.658;2023-08-08T06:18:29;100088.09;;;16.12;68.65
22572;BME280;11452;53.368;14.658;2023-08-08T06:23:35;100099.41;;;16.31;68.59
22572;BME280;11452;53.368;14.658;2023-08-08T06:28:41;100087.05;;;16.38;67.61
22572;BME280;11452;53.368;14.658;2023-08-08T06:33:47;100088.72;;;16.45;67.78
22572;BME280;11452;53.368;14.658;2023-08-08T06:38:53;100082.41;;;16.59;67.52
22572;BME280;11452;53.368;14.658;2023-08-08T06:43:59;100077.84;;;16.66;67.37
22572;BME280;11452;53.368;14.658;2023-08-08T06:49:04;100086.20;;;16.72;67.21
22572;BME280;11452;53.368;14.658;2023-08-08T06:54:11;100103.76;;;16.82;66.92
22572;BME280;11452;53.368;14.658;2023-08-08T06:59:17;100106.09;;;17.00;66.36
22572;BME280;11452;53.368;14.658;2023-08-08T07:04:24;100105.72;;;17.09;65.83
22572;BME280;11452;53.368;14.658;2023-08-08T07:09:30;100113.64;;;17.06;65.42
22572;BME280;11452;53.368;14.658;2023-08-08T07:14:37;100108.72;;;16.96;64.94
22572;BME280;11452;53.368;14.658;2023-08-08T07:19:43;100098.20;;;16.93;65.57
22572;BME280;11452;53.368;14.658;2023-08-08T07:24:50;100114.63;;;17.05;65.80
22572;BME280;11452;53.368;14.658;2023-08-08T07:29:56;100109.42;;;17.17;65.92
22572;BME280;11452;53.368;14.658;2023-08-08T07:35:02;100112.91;;;17.14;64.80
22572;BME280;11452;53.368;14.658;2023-08-08T07:40:14;100116.97;;;17.04;65.07
22572;BME280;11452;53.368;14.658;2023-08-08T07:45:22;100124.72;;;17.03;64.96
22572;BME280;11452;53.368;14.658;2023-08-08T07:50:28;100123.78;;;16.99;65.33
22572;BME280;11452;53.368;14.658;2023-08-08T07:55:34;100122.00;;;17.22;65.80
22572;BME280;11452;53.368;14.658;2023-08-08T08:00:40;100122.86;;;17.46;65.02
22572;BME280;11452;53.368;14.658;2023-08-08T08:05:46;100116.72;;;17.40;64.38
22572;BME280;11452;53.368;14.658;2023-08-08T08:10:52;100133.75;;;17.50;64.42
22572;BME280;11452;53.368;14.658;2023-08-08T08:15:58;100133.42;;;17.63;64.00
22572;BME280;11452;53.368;14.658;2023-08-08T08:21:04;100128.45;;;17.78;63.72
22572;BME280;11452;53.368;14.658;2023-08-08T08:26:10;100132.09;;;17.73;63.37
22572;BME280;11452;53.368;14.658;2023-08-08T08:31:16;100138.84;;;17.73;63.28
22572;BME280;11452;53.368;14.658;2023-08-08T08:36:22;100132.86;;;17.79;63.17
22572;BME280;11452;53.368;14.658;2023-08-08T08:41:31;100128.81;;;17.92;62.74
22572;BME280;11452;53.368;14.658;2023-08-08T08:46:38;100121.97;;;17.98;62.23
22572;BME280;11452;53.368;14.658;2023-08-08T08:51:44;100119.18;;;18.17;61.19
22572;BME280;11452;53.368;14.658;2023-08-08T08:56:50;100115.55;;;18.54;62.04
22572;BME280;11452;53.368;14.658;2023-08-08T09:01:57;100112.14;;;18.52;61.00
22572;BME280;11452;53.368;14.658;2023-08-08T09:07:06;100099.86;;;18.75;60.28
22572;BME280;11452;53.368;14.658;2023-08-08T09:12:13;100109.84;;;18.75;59.53
22572;BME280;11452;53.368;14.658;2023-08-08T09:17:20;100130.53;;;18.62;60.24
22572;BME280;11452;53.368;14.658;2023-08-08T09:22:27;100120.88;;;18.77;60.20
22572;BME280;11452;53.368;14.658;2023-08-08T09:27:34;100111.59;;;18.97;58.95
22572;BME280;11452;53.368;14.658;2023-08-08T09:32:42;100110.61;;;19.20;59.43
22572;BME280;11452;53.368;14.658;2023-08-08T09:37:48;100106.82;;;19.35;57.91
22572;BME280;11452;53.368;14.658;2023-08-08T09:42:53;100087.50;;;19.34;57.01
22572;BME280;11452;53.368;14.658;2023-08-08T09:48:01;100103.30;;;19.38;57.02
22572;BME280;11452;53.368;14.658;2023-08-08T09:53:07;100090.66;;;19.47;55.51
22572;BME280;11452;53.368;14.658;2023-08-08T09:58:14;100096.72;;;19.63;56.36
22572;BME280;11452;53.368;14.658;2023-08-08T10:08:48;100111.81;;;19.44;54.04
22572;BME280;11452;53.368;14.658;2023-08-08T10:13:55;100096.81;;;19.79;54.26
22572;BME280;11452;53.368;14.658;2023-08-08T10:19:02;100106.21;;;19.67;53.49
22572;BME280;11452;53.368;14.658;2023-08-08T10:24:10;100103.09;;;19.80;53.18
22572;BME280;11452;53.368;14.658;2023-08-08T10:29:18;100109.08;;;19.61;52.99
22572;BME280;11452;53.368;14.658;2023-08-08T10:34:47;100093.53;;;19.71;52.51
22572;BME280;11452;53.368;14.658;2023-08-08T10:39:57;100109.11;;;19.65;52.71
22572;BME280;11452;53.368;14.658;2023-08-08T10:45:03;100109.46;;;19.70;52.23
22572;BME280;11452;53.368;14.658;2023-08-08T10:50:11;100105.13;;;19.82;52.69
22572;BME280;11452;53.368;14.658;2023-08-08T10:55:26;100104.79;;;19.81;53.15
22572;BME280;11452;53.368;14.658;2023-08-08T11:00:37;100100.24;;;19.85;52.49
22572;BME280;11452;53.368;14.658;2023-08-08T11:05:48;100102.16;;;19.97;52.50
22572;BME280;11452;53.368;14.658;2023-08-08T11:10:54;100108.94;;;19.97;52.08
22572;BME280;11452;53.368;14.658;2023-08-08T11:16:01;100101.01;;;19.74;52.31
22572;BME280;11452;53.368;14.658;2023-08-08T11:21:10;100085.30;;;19.81;51.99
22572;BME280;11452;53.368;14.658;2023-08-08T11:26:18;100086.52;;;19.91;52.51
22572;BME280;11452;53.368;14.658;2023-08-08T11:31:24;100084.63;;;20.21;52.44
22572;BME280;11452;53.368;14.658;2023-08-08T11:36:32;100099.32;;;20.49;53.00
22572;BME280;11452;53.368;14.658;2023-08-08T11:41:39;100085.83;;;20.31;51.95
22572;BME280;11452;53.368;14.658;2023-08-08T11:46:46;100101.39;;;20.17;52.08
22572;BME280;11452;53.368;14.658;2023-08-08T11:51:54;100095.82;;;20.26;52.73
22572;BME280;11452;53.368;14.658;2023-08-08T11:57:01;100088.31;;;20.54;53.31
22572;BME280;11452;53.368;14.658;2023-08-08T12:02:07;100095.58;;;20.46;52.67
22572;BME280;11452;53.368;14.658;2023-08-08T12:07:13;100094.72;;;20.37;52.41
22572;BME280;11452;53.368;14.658;2023-08-08T12:12:20;100089.70;;;20.70;52.67
22572;BME280;11452;53.368;14.658;2023-08-08T12:17:26;100089.69;;;20.58;51.79
22572;BME280;11452;53.368;14.658;2023-08-08T12:22:33;100089.55;;;20.76;51.94
22572;BME280;11452;53.368;14.658;2023-08-08T12:27:38;100081.23;;;20.90;51.44
22572;BME280;11452;53.368;14.658;2023-08-08T12:32:44;100080.22;;;20.91;50.90
22572;BME280;11452;53.368;14.658;2023-08-08T12:37:50;100090.22;;;20.86;51.00
22572;BME280;11452;53.368;14.658;2023-08-08T12:42:56;100093.77;;;20.79;51.90
22572;BME280;11452;53.368;14.658;2023-08-08T12:48:02;100084.97;;;21.09;52.03
22572;BME280;11452;53.368;14.658;2023-08-08T12:53:08;100079.03;;;21.09;51.02
22572;BME280;11452;53.368;14.658;2023-08-08T12:58:14;100117.75;;;21.07;50.97
22572;BME280;11452;53.368;14.658;2023-08-08T13:03:20;100122.14;;;20.84;50.37
22572;BME280;11452;53.368;14.658;2023-08-08T13:08:26;100124.33;;;20.81;50.00
22572;BME280;11452;53.368;14.658;2023-08-08T13:13:31;100122.21;;;20.38;48.99
22572;BME280;11452;53.368;14.658;2023-08-08T13:18:37;100155.83;;;20.15;49.27
22572;BME280;11452;53.368;14.658;2023-08-08T13:23:43;100196.10;;;19.36;51.22
22572;BME280;11452;53.368;14.658;2023-08-08T13:28:49;100198.56;;;18.63;53.46
22572;BME280;11452;53.368;14.658;2023-08-08T13:33:54;100175.57;;;18.40;55.32
22572;BME280;11452;53.368;14.658;2023-08-08T13:39:00;100178.69;;;18.17;56.32
22572;BME280;11452;53.368;14.658;2023-08-08T13:44:06;100178.70;;;17.94;57.25
22572;BME280;11452;53.368;14.658;2023-08-08T13:49:12;100173.00;;;17.97;58.48
22572;BME280;11452;53.368;14.658;2023-08-08T13:54:18;100173.30;;;17.94;59.18
22572;BME280;11452;53.368;14.658;2023-08-08T13:59:24;100171.45;;;18.08;60.28
22572;BME280;11452;53.368;14.658;2023-08-08T14:04:31;100174.45;;;18.19;60.79
22572;BME280;11452;53.368;14.658;2023-08-08T14:09:37;100168.75;;;18.08;60.71
22572;BME280;11452;53.368;14.658;2023-08-08T14:14:42;100172.37;;;18.40;61.34
22572;BME280;11452;53.368;14.658;2023-08-08T14:19:48;100173.06;;;18.56;60.41
22572;BME280;11452;53.368;14.658;2023-08-08T14:24:54;100170.31;;;18.79;59.76
22572;BME280;11452;53.368;14.658;2023-08-08T14:30:02;100136.66;;;19.17;57.99
22572;BME280;11452;53.368;14.658;2023-08-08T14:35:09;100159.73;;;19.21;57.50
22572;BME280;11452;53.368;14.658;2023-08-08T14:40:15;100153.04;;;19.29;57.73
22572;BME280;11452;53.368;14.658;2023-08-08T14:45:20;100172.97;;;19.24;57.04
22572;BME280;11452;53.368;14.658;2023-08-08T14:50:26;100180.05;;;19.03;57.17
22572;BME280;11452;53.368;14.658;2023-08-08T14:55:32;100175.48;;;19.22;57.78
22572;BME280;11452;53.368;14.658;2023-08-08T15:00:38;100174.52;;;19.27;57.28
22572;BME280;11452;53.368;14.658;2023-08-08T15:05:43;100167.65;;;19.54;57.78
22572;BME280;11452;53.368;14.658;2023-08-08T15:10:50;100169.39;;;19.59;56.17
22572;BME280;11452;53.368;14.658;2023-08-08T15:15:56;100182.72;;;19.53;54.91
22572;BME280;11452;53.368;14.658;2023-08-08T15:21:02;100179.65;;;19.34;54.36
22572;BME280;11452;53.368;14.658;2023-08-08T15:26:08;100189.17;;;19.38;53.74
22572;BME280;11452;53.368;14.658;2023-08-08T15:31:14;100190.23;;;19.81;54.84
22572;BME280;11452;53.368;14.658;2023-08-08T15:36:22;100180.55;;;20.08;52.85
22572;BME280;11452;53.368;14.658;2023-08-08T15:41:27;100176.98;;;20.03;52.84
22572;BME280;11452;53.368;14.658;2023-08-08T15:46:33;100177.97;;;20.32;51.24
22572;BME280;11452;53.368;14.658;2023-08-08T15:51:42;100172.27;;;20.14;51.19
22572;BME280;11452;53.368;14.658;2023-08-08T15:56:50;100189.23;;;20.37;51.71
22572;BME280;11452;53.368;14.658;2023-08-08T16:01:56;100183.00;;;20.19;51.37
22572;BME280;11452;53.368;14.658;2023-08-08T16:07:02;100194.02;;;19.92;50.96
22572;BME280;11452;53.368;14.658;2023-08-08T16:12:08;100183.33;;;19.64;51.26
22572;BME280;11452;53.368;14.658;2023-08-08T16:17:14;100197.57;;;19.31;51.87
22572;BME280;11452;53.368;14.658;2023-08-08T16:22:20;100191.35;;;19.17;52.97
22572;BME280;11452;53.368;14.658;2023-08-08T16:27:26;100208.75;;;18.96;53.76
22572;BME280;11452;53.368;14.658;2023-08-08T16:32:32;100212.08;;;18.77;54.95
22572;BME280;11452;53.368;14.658;2023-08-08T16:37:37;100200.40;;;18.49;56.03
22572;BME280;11452;53.368;14.658;2023-08-08T16:42:43;100216.66;;;19.79;63.11
22572;BME280;11452;53.368;14.658;2023-08-08T16:47:49;100192.75;;;20.72;57.58
22572;BME280;11452;53.368;14.658;2023-08-08T16:52:55;100214.58;;;20.54;54.98
22572;BME280;11452;53.368;14.658;2023-08-08T16:58:01;100219.16;;;22.38;53.95
22572;BME280;11452;53.368;14.658;2023-08-08T17:03:07;100216.26;;;22.83;47.54
22572;BME280;11452;53.368;14.658;2023-08-08T17:08:13;100223.53;;;20.97;48.71
22572;BME280;11452;53.368;14.658;2023-08-08T17:13:22;100224.78;;;20.04;50.11
22572;BME280;11452;53.368;14.658;2023-08-08T17:18:28;100223.88;;;19.52;51.07
22572;BME280;11452;53.368;14.658;2023-08-08T17:23:34;100224.67;;;19.31;52.03
22572;BME280;11452;53.368;14.658;2023-08-08T17:28:41;100236.06;;;19.34;52.74
22572;BME280;11452;53.368;14.658;2023-08-08T17:33:47;100236.02;;;19.30;53.91
22572;BME280;11452;53.368;14.658;2023-08-08T17:38:53;100235.84;;;19.28;54.40
22572;BME280;11452;53.368;14.658;2023-08-08T17:43:59;100242.76;;;18.95;55.00
22572;BME280;11452;53.368;14.658;2023-08-08T17:49:05;100244.28;;;18.80;55.42
22572;BME280;11452;53.368;14.658;2023-08-08T17:54:11;100261.63;;;18.59;55.84
22572;BME280;11452;53.368;14.658;2023-08-08T17:59:17;100264.34;;;18.36;56.61
22572;BME280;11452;53.368;14.658;2023-08-08T18:04:23;100261.58;;;18.32;56.73
22572;BME280;11452;53.368;14.658;2023-08-08T18:09:28;100269.25;;;18.13;57.43
22572;BME280;11452;53.368;14.658;2023-08-08T18:14:34;100277.08;;;18.07;57.90
22572;BME280;11452;53.368;14.658;2023-08-08T18:19:40;100272.60;;;18.02;58.41
22572;BME280;11452;53.368;14.658;2023-08-08T18:24:46;100276.12;;;17.88;58.88
22572;BME280;11452;53.368;14.658;2023-08-08T18:29:52;100278.11;;;17.86;59.33
22572;BME280;11452;53.368;14.658;2023-08-08T18:34:57;100294.70;;;17.68;60.14
22572;BME280;11452;53.368;14.658;2023-08-08T18:40:04;100309.19;;;17.57;61.09
22572;BME280;11452;53.368;14.658;2023-08-08T18:45:11;100314.00;;;17.35;62.62
22572;BME280;11452;53.368;14.658;2023-08-08T18:50:17;100312.89;;;17.12;63.10
22572;BME280;11452;53.368;14.658;2023-08-08T18:55:23;100300.69;;;16.93;64.03
22572;BME280;11452;53.368;14.658;2023-08-08T19:00:29;100317.98;;;16.81;65.35
22572;BME280;11452;53.368;14.658;2023-08-08T19:05:35;100317.73;;;16.69;66.16
22572;BME280;11452;53.368;14.658;2023-08-08T19:10:41;100304.98;;;16.50;66.77
22572;BME280;11452;53.368;14.658;2023-08-08T19:15:47;100316.17;;;16.45;67.66
22572;BME280;11452;53.368;14.658;2023-08-08T19:20:52;100308.50;;;16.35;68.46
22572;BME280;11452;53.368;14.658;2023-08-08T19:25:59;100322.47;;;16.19;69.19
22572;BME280;11452;53.368;14.658;2023-08-08T19:31:05;100319.73;;;16.10;70.55
22572;BME280;11452;53.368;14.658;2023-08-08T19:36:11;100318.51;;;16.08;70.99
22572;BME280;11452;53.368;14.658;2023-08-08T19:41:17;100322.92;;;16.09;71.31
22572;BME280;11452;53.368;14.658;2023-08-08T19:46:23;100320.71;;;16.09;71.65
22572;BME280;11452;53.368;14.658;2023-08-08T19:51:29;100315.84;;;16.03;72.11
22572;BME280;11452;53.368;14.658;2023-08-08T19:56:37;100320.62;;;15.99;72.71
22572;BME280;11452;53.368;14.658;2023-08-08T20:01:43;100328.28;;;15.94;73.29
22572;BME280;11452;53.368;14.658;2023-08-08T20:06:50;100321.20;;;15.87;73.93
22572;BME280;11452;53.368;14.658;2023-08-08T20:11:55;100323.80;;;15.78;74.45
22572;BME280;11452;53.368;14.658;2023-08-08T20:17:02;100323.48;;;15.71;75.37
22572;BME280;11452;53.368;14.658;2023-08-08T20:22:08;100309.30;;;15.64;75.30
22572;BME280;11452;53.368;14.658;2023-08-08T20:27:14;100298.08;;;15.58;75.43
22572;BME280;11452;53.368;14.658;2023-08-08T20:32:20;100310.67;;;15.52;75.63
22572;BME280;11452;53.368;14.658;2023-08-08T20:37:26;100313.25;;;15.48;75.98
22572;BME280;11452;53.368;14.658;2023-08-08T20:42:32;100322.98;;;15.72;75.58
22572;BME280;11452;53.368;14.658;2023-08-08T20:47:38;100331.86;;;15.46;76.14
22572;BME280;11452;53.368;14.658;2023-08-08T20:52:44;100343.53;;;15.35;76.39
22572;BME280;11452;53.368;14.658;2023-08-08T20:57:50;100341.47;;;15.22;76.93
22572;BME280;11452;53.368;14.658;2023-08-08T21:02:55;100348.20;;;15.22;77.07
22572;BME280;11452;53.368;14.658;2023-08-08T21:08:01;100347.25;;;15.17;77.35
22572;BME280;11452;53.368;14.658;2023-08-08T21:13:08;100345.41;;;15.12;77.43
22572;BME280;11452;53.368;14.658;2023-08-08T21:18:14;100349.81;;;15.08;77.60
22572;BME280;11452;53.368;14.658;2023-08-08T21:23:19;100360.86;;;14.99;77.87
22572;BME280;11452;53.368;14.658;2023-08-08T21:28:25;100365.14;;;14.96;78.21
22572;BME280;11452;53.368;14.658;2023-08-08T21:33:33;100366.23;;;14.88;78.54
22572;BME280;11452;53.368;14.658;2023-08-08T21:38:39;100373.59;;;14.80;78.60
22572;BME280;11452;53.368;14.658;2023-08-08T21:43:45;100379.33;;;14.76;78.88
22572;BME280;11452;53.368;14.658;2023-08-08T21:48:50;100378.58;;;14.68;79.11
22572;BME280;11452;53.368;14.658;2023-08-08T21:53:56;100384.83;;;14.63;79.35
22572;BME280;11452;53.368;14.658;2023-08-08T21:59:02;100394.97;;;14.60;79.46
22572;BME280;11452;53.368;14.658;2023-08-08T22:04:08;100401.91;;;14.51;79.50
22572;BME280;11452;53.368;14.658;2023-08-08T22:09:14;100401.42;;;14.51;79.67
22572;BME280;11452;53.368;14.658;2023-08-08T22:14:20;100407.77;;;14.50;79.94
22572;BME280;11452;53.368;14.658;2023-08-08T22:19:26;100407.03;;;14.48;80.17
22572;BME280;11452;53.368;14.658;2023-08-08T22:24:32;100411.81;;;14.50;80.29
22572;BME280;11452;53.368;14.658;2023-08-08T22:29:38;100410.59;;;14.43;80.00
22572;BME280;11452;53.368;14.658;2023-08-08T22:34:44;100408.08;;;14.35;80.24
22572;BME280;11452;53.368;14.658;2023-08-08T22:39:49;100413.69;;;14.32;80.33
22572;BME280;11452;53.368;14.658;2023-08-08T22:44:55;100413.20;;;14.27;80.28
22572;BME280;11452;53.368;14.658;2023-08-08T22:50:01;100421.48;;;14.18;80.10
22572;BME280;11452;53.368;14.658;2023-08-08T22:55:08;100420.47;;;14.13;80.11
22572;BME280;11452;53.368;14.658;2023-08-08T23:00:14;100423.39;;;14.05;80.21
22572;BME280;11452;53.368;14.658;2023-08-08T23:05:20;100411.50;;;13.96;80.32
22572;BME280;11452;53.368;14.658;2023-08-08T23:10:26;100416.02;;;13.96;80.29
22572;BME280;11452;53.368;14.658;2023-08-08T23:15:31;100423.33;;;13.94;80.20
22572;BME280;11452;53.368;14.658;2023-08-08T23:20:37;100416.80;;;13.79;80.33
22572;BME280;11452;53.368;14.658;2023-08-08T23:25:43;100417.88;;;13.77;80.56
22572;BME280;11452;53.368;14.658;2023-08-08T23:30:49;100419.70;;;13.71;80.45
22572;BME280;11452;53.368;14.658;2023-08-08T23:35:55;100422.23;;;13.67;80.65
22572;BME280;11452;53.368;14.658;2023-08-08T23:41:00;100414.14;;;13.61;80.59
22572;BME280;11452;53.368;14.658;2023-08-08T23:46:07;100417.42;;;13.59;80.61
22572;BME280;11452;53.368;14.658;2023-08-08T23:51:13;100417.64;;;13.56;80.59
22572;BME280;11452;53.368;14.658;2023-08-08T23:56:19;100417.41;;;13.54;80.59
